Time;durP1;ratioP1;P1;durP2;ratioP2;P2;SDS_P1;SDS_P2;PMS_P1;PMS_P2;Temp;Humidity;BMP_temperature;BMP_pressure;BME280_temperature;BME280_humidity;BME280_pressure;Samples;Min_cycle;Max_cycle;Signal;HPM_P1;HPM_P2
2023/04/05 00:01:25;;;;;;;3.05;1.77;;;1.80;99.90;;;;;;5135865;27;20031;-65
2023/04/05 00:03:57;;;;;;;5.55;1.98;;;1.80;99.90;;;;;;5135942;27;20050;-65
2023/04/05 00:06:30;;;;;;;3.55;1.80;;;1.70;23.50;;;;;;5100465;27;20126;-65
2023/04/05 00:08:58;;;;;;;5.35;2.55;;;1.70;99.90;;;;;;5135844;27;20043;-65
2023/04/05 00:11:29;;;;;;;3.80;1.90;;;1.70;59.60;;;;;;5135740;27;20039;-65
2023/04/05 00:13:55;;;;;;;3.65;1.73;;;1.70;99.90;;;;;;5135699;27;20447;-65
2023/04/05 00:16:21;;;;;;;2.90;1.50;;;1.60;47.50;;;;;;5134040;27;20047;-65
2023/04/05 00:18:50;;;;;;;3.67;1.83;;;1.60;1.00;;;;;;5099827;27;20104;-65
2023/04/05 00:21:23;;;;;;;4.25;1.80;;;1.60;1.00;;;;;;5135010;27;20402;-65
2023/04/05 00:23:52;;;;;;;3.35;1.90;;;1.50;99.90;;;;;;5135279;27;20046;-65
2023/04/05 00:26:19;;;;;;;7.40;1.80;;;1.50;63.00;;;;;;5135456;27;20035;-65
2023/04/05 00:28:47;;;;;;;4.25;2.05;;;1.50;99.90;;;;;;5135417;27;20066;-65
2023/04/05 00:31:12;;;;;;;5.57;2.17;;;1.50;99.90;;;;;;5135037;27;20107;-64
2023/04/05 00:33:38;;;;;;;2.95;1.80;;;1.40;99.90;;;;;;5116647;27;20554;-65
2023/04/05 00:36:18;;;;;;;5.32;1.92;;;1.40;99.90;;;;;;5134940;27;20031;-65
2023/04/05 00:38:45;;;;;;;4.70;2.40;;;1.40;1.00;;;;;;5135136;27;20043;-65
2023/04/05 00:41:12;;;;;;;4.00;2.08;;;1.40;1.00;;;;;;5135167;27;20039;-65
2023/04/05 00:43:38;;;;;;;6.90;2.38;;;1.30;99.90;;;;;;5135112;27;20415;-65
2023/04/05 00:46:06;;;;;;;6.65;3.10;;;1.30;26.60;;;;;;5135061;27;20045;-65
2023/04/05 00:48:32;;;;;;;4.90;2.13;;;1.30;99.90;;;;;;5134960;27;20031;-65
2023/04/05 00:50:59;;;;;;;4.28;1.75;;;1.30;1.00;;;;;;5135048;27;20032;-65
2023/04/05 00:53:27;;;;;;;5.93;2.33;;;1.30;72.70;;;;;;5134901;27;20039;-65
2023/04/05 00:55:54;;;;;;;6.72;2.33;;;1.30;99.90;;;;;;5134924;27;20041;-65
2023/04/05 00:58:21;;;;;;;3.30;2.45;;;1.20;99.90;;;;;;5134577;27;20035;-64
2023/04/05 01:01:06;;;;;;;3.65;1.80;;;1.20;82.40;;;;;;5116108;27;20523;-65
2023/04/05 01:03:34;;;;;;;4.32;2.00;;;1.20;99.90;;;;;;5134474;27;20043;-65
2023/04/05 01:06:02;;;;;;;4.18;1.80;;;1.20;1.00;;;;;;5134734;27;20031;-64
2023/04/05 01:08:39;;;;;;;3.67;2.25;;;1.20;99.90;;;;;;5116050;27;20050;-64
2023/04/05 01:11:07;;;;;;;5.60;2.10;;;1.10;99.90;;;;;;5134679;27;20067;-65
2023/04/05 01:13:33;;;;;;;7.40;2.10;;;1.10;99.90;;;;;;5134571;27;20043;-65
2023/04/05 01:15:59;;;;;;;3.97;2.30;;;1.00;99.90;;;;;;5115911;27;20044;-65
2023/04/05 01:18:26;;;;;;;6.25;2.45;;;1.00;99.90;;;;;;5115765;27;20389;-64
2023/04/05 01:21:19;;;;;;;3.97;2.13;;;1.00;99.90;;;;;;5116207;27;20059;-64
2023/04/05 01:23:58;;;;;;;4.18;2.22;;;1.00;99.90;;;;;;5134399;27;20443;-65
2023/04/05 01:27:08;;;;;;;8.52;2.22;;;1.00;99.90;;;;;;5134045;27;20033;-65
2023/04/05 01:30:02;;;;;;;5.93;2.10;;;1.00;99.90;;;;;;5084895;27;20051;-65
2023/04/05 01:32:46;;;;;;;13.55;2.65;;;0.90;99.90;;;;;;5133939;27;20405;-65
2023/04/05 01:35:29;;;;;;;4.88;2.50;;;1.30;99.90;;;;;;5115508;27;20051;-65
2023/04/05 01:38:00;;;;;;;4.43;1.80;;;0.90;99.90;;;;;;5133992;27;20387;-65
2023/04/05 01:40:26;;;;;;;5.05;2.05;;;0.90;99.90;;;;;;5115449;27;20043;-65
2023/04/05 01:42:52;;;;;;;4.28;2.17;;;0.90;99.90;;;;;;5134126;27;20283;-65
2023/04/05 01:45:18;;;;;;;5.57;2.58;;;0.80;1.00;;;;;;5115454;27;20469;-66
2023/04/05 01:47:43;;;;;;;3.47;2.15;;;0.80;99.90;;;;;;5115526;27;20031;-65
2023/04/05 01:50:09;;;;;;;4.25;2.03;;;0.80;99.90;;;;;;5115734;28;20368;-64
2023/04/05 01:52:35;;;;;;;5.88;2.38;;;0.70;1.00;;;;;;5134337;27;20050;-65
2023/04/05 01:55:02;;;;;;;7.47;2.38;;;0.70;1.00;;;;;;5134096;28;20445;-65
2023/04/05 01:57:27;;;;;;;7.72;1.88;;;0.70;1.00;;;;;;5133971;28;20113;-68
2023/04/05 01:59:53;;;;;;;5.07;2.17;;;0.70;1.00;;;;;;5115327;28;20122;-65
2023/04/05 02:02:19;;;;;;;6.88;2.42;;;0.70;99.90;;;;;;5133672;28;20040;-64
2023/04/05 02:04:45;;;;;;;3.45;2.00;;;0.70;99.90;;;;;;5133657;28;20478;-65
2023/04/05 02:07:10;;;;;;;6.13;2.03;;;0.70;99.90;;;;;;5133602;28;20050;-65
2023/04/05 02:09:36;;;;;;;7.45;2.28;;;0.70;99.90;;;;;;5115523;28;20038;-65
2023/04/05 02:12:01;;;;;;;8.25;2.88;;;0.70;99.90;;;;;;5133900;28;20063;-65
2023/04/05 02:14:27;;;;;;;4.75;2.53;;;0.70;99.90;;;;;;5133828;28;20039;-66
2023/04/05 02:16:55;;;;;;;4.65;2.28;;;0.70;1.00;;;;;;5133822;28;20574;-64
2023/04/05 02:19:22;;;;;;;6.10;2.67;;;1.60;1.00;;;;;;5133454;28;20063;-65
2023/04/05 02:21:55;;;;;;;4.57;1.88;;;0.60;1.00;;;;;;5098102;28;20428;-67
2023/04/05 02:24:20;;;;;;;5.82;2.28;;;0.60;1.00;;;;;;5115024;28;20046;-66
2023/04/05 02:26:46;;;;;;;7.55;2.42;;;0.60;1.00;;;;;;5098094;28;20035;-66
2023/04/05 02:29:12;;;;;;;7.03;2.08;;;0.60;1.00;;;;;;5133726;28;20398;-62
2023/04/05 02:31:38;;;;;;;3.80;2.15;;;0.60;1.00;;;;;;5133458;28;20118;-62
2023/04/05 02:34:04;;;;;;;8.07;2.83;;;0.50;1.00;;;;;;5133659;28;20061;-62
2023/04/05 02:36:30;;;;;;;4.30;2.00;;;0.50;1.00;;;;;;5132120;28;20043;-62
2023/04/05 02:38:56;;;;;;;4.07;2.13;;;0.50;1.00;;;;;;5133238;28;20363;-61
2023/04/05 02:41:22;;;;;;;5.75;2.70;;;0.50;1.00;;;;;;5133558;28;20067;-62
2023/04/05 02:43:49;;;;;;;4.70;2.65;;;0.50;1.00;;;;;;5132266;27;20121;-62
2023/04/05 02:46:15;;;;;;;8.45;2.40;;;0.50;1.00;;;;;;5118964;27;20099;-62
2023/04/05 02:48:40;;;;;;;6.82;2.28;;;0.40;1.00;;;;;;5137074;27;20546;-62
2023/04/05 02:51:06;;;;;;;5.10;2.67;;;0.40;1.00;;;;;;5137355;27;20027;-61
2023/04/05 02:53:32;;;;;;;4.65;2.40;;;0.40;1.00;;;;;;5118816;27;20031;-62
2023/04/05 02:55:58;;;;;;;6.15;2.85;;;0.40;1.00;;;;;;5137264;27;20031;-61
2023/04/05 02:58:24;;;;;;;6.72;3.08;;;0.40;1.00;;;;;;5137256;27;20045;-61
2023/04/05 03:00:51;;;;;;;4.68;2.22;;;0.40;1.00;;;;;;5118509;27;20771;-61
2023/04/05 03:03:21;;;;;;;5.80;2.15;;;0.30;1.00;;;;;;5118700;27;20035;-62
2023/04/05 03:05:47;;;;;;;6.45;2.58;;;0.30;1.00;;;;;;5137056;27;20067;-62
2023/04/05 03:08:22;;;;;;;5.40;2.78;;;0.20;1.00;;;;;;5136958;27;20065;-62
2023/04/05 03:10:50;;;;;;;4.53;2.58;;;0.30;1.00;;;;;;5137006;27;20398;-62
2023/04/05 03:13:16;;;;;;;5.72;2.80;;;0.20;1.00;;;;;;5136673;27;20039;-62
2023/04/05 03:15:42;;;;;;;5.88;2.50;;;0.30;1.00;;;;;;5136897;27;20382;-62
2023/04/05 03:18:08;;;;;;;4.60;2.50;;;0.10;1.00;;;;;;5118189;27;20059;-62
2023/04/05 03:20:38;;;;;;;4.57;2.70;;;0.30;1.00;;;;;;5136701;27;20047;-61
2023/04/05 03:23:06;;;;;;;3.97;2.33;;;0.20;1.00;;;;;;5136838;27;20049;-62
2023/04/05 03:25:36;;;;;;;6.13;2.50;;;0.10;1.00;;;;;;5136716;27;20535;-61
2023/04/05 03:28:05;;;;;;;7.30;2.17;;;0.10;1.00;;;;;;5136646;27;20118;-61
2023/04/05 03:30:32;;;;;;;7.15;3.28;;;0.10;1.00;;;;;;5136569;27;20070;-61
2023/04/05 03:33:00;;;;;;;6.18;2.80;;;0.20;1.00;;;;;;5136500;27;20394;-62
2023/04/05 03:35:26;;;;;;;9.18;2.88;;;0.10;1.00;;;;;;5136463;27;20035;-61
2023/04/05 03:37:52;;;;;;;5.88;2.80;;;0.00;1.00;;;;;;5136426;27;20196;-61
2023/04/05 03:40:18;;;;;;;5.93;2.13;;;0.00;1.00;;;;;;5136077;27;20043;-61
2023/04/05 03:42:44;;;;;;;6.70;2.72;;;0.30;1.00;;;;;;5136413;27;20039;-62
2023/04/05 03:45:10;;;;;;;10.75;2.50;;;0.10;1.00;;;;;;5135927;27;20039;-62
2023/04/05 03:47:36;;;;;;;9.90;3.33;;;0.30;1.00;;;;;;5117676;27;20085;-62
2023/04/05 03:50:03;;;;;;;10.43;2.65;;;0.10;1.00;;;;;;5136284;27;20039;-61
2023/04/05 03:52:29;;;;;;;5.43;2.65;;;0.20;15.80;;;;;;5117654;27;20066;-61
2023/04/05 03:54:55;;;;;;;7.85;3.10;;;0.30;11.30;;;;;;5135716;27;20039;-61
2023/04/05 03:57:21;;;;;;;5.60;2.47;;;;;;;;;;5134790;27;20213;-65
2023/04/05 03:59:46;;;;;;;7.15;3.30;;;0.00;1.00;;;;;;5135942;27;20043;-61
2023/04/05 04:02:12;;;;;;;4.47;2.67;;;0.00;1.00;;;;;;5135931;27;20031;-61
2023/04/05 04:04:38;;;;;;;5.60;2.90;;;0.00;1.00;;;;;;5135922;27;20501;-61
2023/04/05 04:07:03;;;;;;;7.55;3.30;;;0.00;1.00;;;;;;5135867;27;20050;-61
2023/04/05 04:09:29;;;;;;;6.60;2.58;;;0.00;2.10;;;;;;5135439;27;20122;-63
2023/04/05 04:11:58;;;;;;;5.07;2.80;;;0.00;1.00;;;;;;5135763;27;20074;-61
2023/04/05 04:14:24;;;;;;;6.78;3.28;;;0.00;1.00;;;;;;5134472;27;20051;-61
2023/04/05 04:16:49;;;;;;;5.70;2.97;;;-0.10;1.00;;;;;;5135690;27;20092;-61
2023/04/05 04:19:18;;;;;;;6.63;2.80;;;-0.10;1.00;;;;;;5135156;27;20050;-61
2023/04/05 04:21:50;;;;;;;3.97;2.17;;;-0.10;1.00;;;;;;5135305;27;20043;-62
2023/04/05 04:24:18;;;;;;;;;;;-0.10;1.00;;;;;;5135924;27;20432;-61
2023/04/05 04:26:45;;;;;;;11.82;3.30;;;-0.10;1.00;;;;;;5135145;27;19915;-61
2023/04/05 04:29:17;;;;;;;5.90;2.60;;;-0.10;1.00;;;;;;5135420;27;20070;-61
2023/04/05 04:31:48;;;;;;;;;;;-0.10;1.00;;;;;;5135792;27;20058;-61
2023/04/05 04:34:17;;;;;;;4.68;2.90;;;-0.10;1.00;;;;;;5135024;27;19940;-61
2023/04/05 04:36:45;;;;;;;6.03;3.30;;;-0.20;1.00;;;;;;5135235;27;20395;-61
2023/04/05 04:39:12;;;;;;;10.52;2.78;;;-0.20;1.00;;;;;;5135101;27;20043;-61
2023/04/05 04:41:43;;;;;;;9.27;3.58;;;-0.20;1.00;;;;;;5135193;27;20042;-61
2023/04/05 04:44:13;;;;;;;6.25;3.42;;;-0.20;15.20;;;;;;5116843;27;20027;-61
2023/04/05 04:46:42;;;;;;;9.25;3.63;;;-0.20;9.80;;;;;;5135081;27;20125;-61
2023/04/05 04:49:09;;;;;;;6.55;3.17;;;-0.20;5.00;;;;;;5135042;27;20043;-61
2023/04/05 04:51:37;;;;;;;6.32;3.22;;;-0.20;9.00;;;;;;5134988;27;20043;-61
2023/04/05 04:54:02;;;;;;;9.80;3.17;;;-0.30;12.70;;;;;;5134927;27;20039;-61
2023/04/05 04:56:28;;;;;;;9.38;3.30;;;-0.20;21.00;;;;;;5134849;27;20486;-61
2023/04/05 04:58:55;;;;;;;7.93;3.22;;;-0.30;27.20;;;;;;5134798;27;20035;-61
2023/04/05 05:01:21;;;;;;;7.10;3.42;;;-0.20;25.30;;;;;;5134756;27;20432;-61
2023/04/05 05:03:47;;;;;;;5.53;3.17;;;-0.30;22.80;;;;;;5134531;27;20099;-61
2023/04/05 05:06:16;;;;;;;8.88;3.10;;;-0.20;22.80;;;;;;5134772;27;20432;-61
2023/04/05 05:08:42;;;;;;;6.18;3.15;;;-0.30;19.90;;;;;;5134660;27;20407;-61
2023/04/05 05:11:08;;;;;;;7.05;3.40;;;-0.20;19.80;;;;;;5134688;27;20046;-61
2023/04/05 05:13:33;;;;;;;6.88;3.00;;;-0.20;15.70;;;;;;5134680;27;20031;-61
2023/04/05 05:16:00;;;;;;;6.45;2.83;;;-0.20;18.50;;;;;;5134591;27;20035;-63
2023/04/05 05:18:26;;;;;;;6.43;3.85;;;-0.20;11.50;;;;;;5134287;27;20043;-62
2023/04/05 05:20:51;;;;;;;5.40;3.40;;;-0.20;14.80;;;;;;5134449;27;20488;-63
2023/04/05 05:23:17;;;;;;;7.72;3.13;;;-0.20;12.80;;;;;;5134423;27;20088;-62
2023/04/05 05:25:43;;;;;;;11.10;3.65;;;-0.20;17.00;;;;;;5116100;27;20039;-65
2023/04/05 05:28:08;;;;;;;5.97;3.35;;;-0.10;21.60;;;;;;5134411;27;20037;-62
2023/04/05 05:30:34;;;;;;;11.50;3.80;;;-0.10;23.20;;;;;;5134379;27;20428;-63
2023/04/05 05:33:00;;;;;;;6.30;3.50;;;0.00;41.60;;;;;;5115694;27;20043;-64
2023/04/05 05:35:26;;;;;;;7.85;3.80;;;0.00;37.40;;;;;;5133975;27;20447;-69
2023/04/05 05:37:52;;;;;;;7.53;3.42;;;0.00;34.40;;;;;;5134183;27;20380;-65
2023/04/05 05:40:17;;;;;;;9.60;3.83;;;0.00;31.70;;;;;;5133837;27;20095;-63
2023/04/05 05:42:43;;;;;;;10.55;3.45;;;0.10;33.10;;;;;;5134089;27;20034;-62
2023/04/05 05:45:09;;;;;;;6.75;3.25;;;0.20;33.70;;;;;;5134158;27;20080;-61
2023/04/05 05:47:35;;;;;;;6.22;3.60;;;0.20;36.80;;;;;;5134204;27;20070;-62
2023/04/05 05:50:02;;;;;;;5.55;3.28;;;0.20;35.60;;;;;;5134139;27;20495;-61
2023/04/05 05:52:28;;;;;;;6.75;3.50;;;0.30;30.90;;;;;;5133727;27;20058;-68
2023/04/05 05:54:53;;;;;;;5.35;3.15;;;0.20;28.40;;;;;;5132481;27;20039;-61
2023/04/05 05:57:19;;;;;;;7.35;3.40;;;0.80;29.60;;;;;;5134004;28;20043;-61
2023/04/05 05:59:45;;;;;;;8.18;3.50;;;0.40;29.50;;;;;;5133955;28;20043;-62
2023/04/05 06:02:11;;;;;;;5.57;3.40;;;0.60;30.70;;;;;;5133780;28;20146;-62
2023/04/05 06:04:36;;;;;;;6.72;3.55;;;0.60;29.80;;;;;;5133943;28;20031;-61
2023/04/05 06:07:03;;;;;;;6.88;2.88;;;0.70;28.50;;;;;;5133738;28;20470;-61
2023/04/05 06:09:28;;;;;;;9.32;3.80;;;0.80;30.40;;;;;;5133525;28;20363;-62
2023/04/05 06:11:55;;;;;;;8.73;4.68;;;0.80;25.30;;;;;;5133854;28;20046;-62
2023/04/05 06:14:21;;;;;;;6.90;3.88;;;0.90;22.80;;;;;;5133526;28;20047;-63
2023/04/05 06:16:47;;;;;;;11.48;4.47;;;1.00;18.20;;;;;;5133378;28;20039;-61
2023/04/05 06:19:13;;;;;;;8.00;3.45;;;1.00;19.20;;;;;;5115614;27;20062;-61
2023/04/05 06:21:38;;;;;;;7.53;4.07;;;1.10;23.40;;;;;;5137628;27;20065;-61
2023/04/05 06:24:04;;;;;;;7.70;4.05;;;1.20;19.90;;;;;;5137851;27;20043;-62
2023/04/05 06:26:30;;;;;;;6.25;3.88;;;1.30;11.70;;;;;;5119018;27;20475;-61
2023/04/05 06:28:56;;;;;;;9.05;4.15;;;1.40;9.50;;;;;;5137803;27;20043;-61
2023/04/05 06:31:27;;;;;;;5.20;3.58;;;1.50;2.90;;;;;;5137729;27;20501;-61
2023/04/05 06:33:52;;;;;;;9.63;4.22;;;1.60;1.00;;;;;;5137628;27;20121;-61
2023/04/05 06:36:18;;;;;;;7.70;3.45;;;1.70;1.00;;;;;;5137593;27;20423;-61
2023/04/05 06:38:43;;;;;;;11.40;4.10;;;1.80;1.00;;;;;;5137481;27;20031;-64
2023/04/05 06:41:09;;;;;;;7.32;3.67;;;1.90;1.00;;;;;;5119125;27;20070;-61
2023/04/05 06:43:35;;;;;;;6.78;3.97;;;2.00;1.00;;;;;;5136986;27;20122;-61
2023/04/05 06:46:00;;;;;;;11.70;4.43;;;2.10;1.00;;;;;;5137331;27;20035;-61
2023/04/05 06:48:28;;;;;;;6.57;4.32;;;2.30;1.00;;;;;;5137182;27;20031;-61
2023/04/05 06:51:00;;;;;;;11.20;5.82;;;2.40;1.00;;;;;;5136987;27;20035;-61
2023/04/05 06:53:27;;;;;;;11.48;4.93;;;2.60;1.00;;;;;;5137110;27;20076;-65
2023/04/05 06:55:57;;;;;;;7.32;3.70;;;2.70;1.00;;;;;;5137135;27;20043;-61
2023/04/05 06:58:25;;;;;;;8.32;4.53;;;2.80;99.90;;;;;;5137087;27;20043;-61
2023/04/05 07:00:50;;;;;;;7.25;3.80;;;3.00;99.90;;;;;;5137019;27;20436;-62
2023/04/05 07:03:17;;;;;;;10.38;4.40;;;3.10;99.90;;;;;;5136861;27;20031;-61
2023/04/05 07:05:57;;;;;;;8.32;4.82;;;3.20;99.90;;;;;;5136966;27;20494;-61
2023/04/05 07:08:24;;;;;;;8.18;4.55;;;3.40;99.90;;;;;;5136834;27;20031;-61
2023/04/05 07:10:50;;;;;;;8.68;4.05;;;3.40;99.90;;;;;;5136870;27;20073;-61
2023/04/05 07:13:17;;;;;;;10.30;4.15;;;3.50;1.00;;;;;;5136720;27;20143;-60
2023/04/05 07:15:45;;;;;;;9.98;3.78;;;3.60;99.90;;;;;;5136411;27;20058;-61
2023/04/05 07:18:11;;;;;;;7.32;4.47;;;3.70;99.90;;;;;;5136418;27;20084;-60
2023/04/05 07:20:37;;;;;;;8.02;3.70;;;3.80;99.90;;;;;;5136518;27;20543;-60
2023/04/05 07:23:04;;;;;;;6.45;3.95;;;4.00;99.90;;;;;;5136304;27;20067;-61
2023/04/05 07:25:31;;;;;;;8.45;4.07;;;4.10;99.90;;;;;;5136542;27;20031;-61
2023/04/05 07:27:56;;;;;;;9.45;5.05;;;4.20;99.90;;;;;;5136505;27;20031;-61
2023/04/05 07:30:22;;;;;;;6.82;3.95;;;4.30;99.90;;;;;;5135793;27;20047;-61
2023/04/05 07:32:47;;;;;;;8.70;3.35;;;4.40;99.90;;;;;;5135481;27;20383;-61
2023/04/05 07:35:14;;;;;;;6.18;3.75;;;4.60;1.00;;;;;;5117813;27;20070;-61
2023/04/05 07:37:40;;;;;;;8.32;3.47;;;4.70;99.90;;;;;;5136456;27;20035;-61
2023/04/05 07:40:06;;;;;;;8.25;4.00;;;4.80;99.90;;;;;;5136026;27;20437;-61
2023/04/05 07:42:32;;;;;;;7.20;3.95;;;4.90;99.90;;;;;;5135441;27;20076;-61
2023/04/05 07:44:58;;;;;;;5.90;3.38;;;5.60;99.90;;;;;;5136052;27;20118;-61
2023/04/05 07:47:23;;;;;;;6.25;3.72;;;5.20;1.00;;;;;;5136220;27;20070;-61
2023/04/05 07:49:49;;;;;;;6.70;4.03;;;5.30;1.00;;;;;;5136196;27;20031;-66
2023/04/05 07:52:15;;;;;;;9.27;3.42;;;5.50;99.90;;;;;;5136109;27;20039;-61
2023/04/05 07:54:42;;;;;;;8.00;3.97;;;5.50;96.80;;;;;;5117487;27;20579;-61
2023/04/05 07:57:09;;;;;;;10.52;3.65;;;5.60;1.00;;;;;;5136110;27;20039;-61
2023/04/05 07:59:35;;;;;;;5.93;3.38;;;5.80;99.90;;;;;;5135918;27;20047;-61
2023/04/05 08:02:01;;;;;;;8.23;3.65;;;5.90;99.90;;;;;;5135934;27;20035;-61
2023/04/05 08:04:27;;;;;;;6.65;3.83;;;6.00;99.90;;;;;;5135903;27;20035;-61
2023/04/05 08:06:52;;;;;;;6.57;3.83;;;6.10;99.90;;;;;;5135648;27;20080;-61
2023/04/05 08:09:18;;;;;;;8.20;3.78;;;6.20;99.90;;;;;;5135807;27;20084;-61
2023/04/05 08:11:43;;;;;;;11.27;3.88;;;6.40;99.90;;;;;;5135765;27;20031;-61
2023/04/05 08:14:09;;;;;;;5.28;3.10;;;6.50;49.70;;;;;;5135806;27;20539;-61
2023/04/05 08:16:35;;;;;;;6.70;3.78;;;6.60;99.90;;;;;;5135651;27;20043;-61
2023/04/05 08:19:00;;;;;;;5.93;3.38;;;6.60;99.90;;;;;;5135301;27;20403;-62
2023/04/05 08:21:26;;;;;;;6.32;3.80;;;6.60;99.90;;;;;;5135595;27;20110;-61
2023/04/05 08:23:52;;;;;;;5.35;3.55;;;6.70;99.90;;;;;;5135566;27;20548;-61
2023/04/05 08:26:17;;;;;;;5.93;3.63;;;6.80;99.90;;;;;;5135557;27;20036;-61
2023/04/05 08:28:43;;;;;;;5.47;3.70;;;6.90;99.90;;;;;;5135439;27;20382;-64
2023/04/05 08:31:09;;;;;;;5.72;3.25;;;7.10;1.00;;;;;;5135390;27;20043;-61
2023/04/05 08:33:35;;;;;;;5.80;2.97;;;7.20;99.90;;;;;;5135356;27;20031;-61
2023/04/05 08:36:08;;;;;;;9.27;3.65;;;7.30;99.90;;;;;;5135386;27;20193;-61
2023/04/05 08:38:33;;;;;;;8.95;3.55;;;7.40;99.90;;;;;;5135123;27;20031;-62
2023/04/05 08:41:17;;;;;;;4.72;3.15;;;7.50;99.90;;;;;;5135117;27;20031;-61
2023/04/05 08:44:01;;;;;;;5.15;2.97;;;7.60;99.90;;;;;;5116287;27;20039;-61
2023/04/05 08:46:30;;;;;;;9.98;3.17;;;7.70;1.00;;;;;;5135006;27;20035;-62
2023/04/05 08:48:57;;;;;;;5.35;2.78;;;7.90;1.00;;;;;;5134643;27;20119;-61
2023/04/05 08:51:23;;;;;;;4.97;2.72;;;8.10;99.90;;;;;;5134951;27;20086;-62
2023/04/05 08:53:49;;;;;;;5.18;2.50;;;8.20;99.90;;;;;;5134910;27;20053;-61
2023/04/05 08:56:19;;;;;;;5.93;2.92;;;8.20;99.90;;;;;;5134828;27;20046;-61
2023/04/05 08:58:55;;;;;;;5.72;2.97;;;8.20;99.90;;;;;;5134962;27;20426;-61
2023/04/05 09:01:22;;;;;;;4.72;3.10;;;8.30;99.90;;;;;;5134826;27;20062;-62
2023/04/05 09:03:50;;;;;;;4.53;2.75;;;8.40;99.90;;;;;;5134701;27;20080;-62
2023/04/05 09:06:16;;;;;;;4.55;2.20;;;8.50;99.90;;;;;;5134627;27;20039;-61
2023/04/05 09:08:42;;;;;;;5.75;2.67;;;8.70;99.90;;;;;;5134577;27;20035;-61
2023/04/05 09:11:11;;;;;;;5.82;2.67;;;8.50;1.00;;;;;;5134564;27;20066;-62
2023/04/05 09:13:37;;;;;;;6.55;2.10;;;8.40;1.00;;;;;;5134201;27;20043;-61
2023/04/05 09:16:03;;;;;;;4.75;2.13;;;8.40;1.00;;;;;;5134500;27;20076;-61
2023/04/05 09:18:30;;;;;;;4.90;2.10;;;8.60;1.00;;;;;;5134245;27;20063;-61
2023/04/05 09:21:05;;;;;;;6.88;2.60;;;8.60;1.00;;;;;;5134364;27;20050;-61
2023/04/05 09:23:36;;;;;;;4.50;2.08;;;8.70;1.00;;;;;;5115556;27;20130;-61
2023/04/05 09:26:18;;;;;;;3.60;1.70;;;8.90;1.00;;;;;;5134256;27;20247;-61
2023/04/05 09:28:44;;;;;;;3.05;1.27;;;9.00;1.00;;;;;;5134296;27;20130;-62
2023/04/05 09:31:32;;;;;;;3.70;1.75;;;9.10;99.90;;;;;;5134380;27;20455;-61
2023/04/05 09:34:00;;;;;;;2.83;2.10;;;8.80;99.90;;;;;;5134299;27;20043;-61
2023/04/05 09:36:27;;;;;;;4.47;1.38;;;8.70;99.90;;;;;;5133943;27;20035;-62
2023/04/05 09:38:52;;;;;;;3.58;1.70;;;8.80;99.90;;;;;;5134179;27;20078;-62
2023/04/05 09:41:18;;;;;;;4.05;2.00;;;8.70;99.90;;;;;;5134228;27;20086;-63
2023/04/05 09:43:44;;;;;;;3.47;2.03;;;8.90;99.90;;;;;;5133774;27;20494;-62
2023/04/05 09:46:32;;;;;;;2.42;1.65;;;9.00;99.90;;;;;;5133896;27;20039;-61
2023/04/05 09:48:59;;;;;;;3.92;2.00;;;9.00;99.90;;;;;;5134104;27;20093;-61
2023/04/05 09:51:35;;;;;;;4.95;2.42;;;9.00;99.90;;;;;;5115391;28;20061;-61
2023/04/05 09:54:07;;;;;;;6.75;1.70;;;9.30;99.90;;;;;;5133231;27;20459;-62
2023/04/05 09:56:35;;;;;;;3.90;1.58;;;9.30;99.90;;;;;;5133937;27;20118;-61
2023/04/05 09:59:09;;;;;;;4.85;1.95;;;9.60;99.90;;;;;;5133568;28;20052;-61
2023/04/05 10:01:35;;;;;;;4.32;1.77;;;9.70;99.90;;;;;;5133967;28;20382;-61
2023/04/05 10:04:01;;;;;;;4.63;1.80;;;9.80;99.90;;;;;;5133962;28;20397;-61
2023/04/05 10:06:53;;;;;;;2.55;1.58;;;10.20;99.90;;;;;;5133757;28;20427;-62
2023/04/05 10:09:19;;;;;;;3.47;1.75;;;10.00;99.90;;;;;;5129628;28;20112;-62
2023/04/05 10:11:45;;;;;;;3.50;1.73;;;9.80;99.90;;;;;;5133879;28;20047;-62
2023/04/05 10:14:11;;;;;;;5.05;1.98;;;9.80;99.90;;;;;;5115071;28;20115;-61
2023/04/05 10:16:59;;;;;;;9.65;2.13;;;9.50;99.90;;;;;;5133817;28;20095;-62
2023/04/05 10:19:43;;;;;;;2.60;1.73;;;9.30;99.90;;;;;;5133248;28;20047;-61
2023/04/05 10:22:28;;;;;;;3.90;2.20;;;9.40;99.90;;;;;;5133781;28;20110;-62
2023/04/05 10:25:04;;;;;;;3.72;2.10;;;9.70;99.90;;;;;;5133673;28;20036;-67
2023/04/05 10:27:37;;;;;;;6.25;2.40;;;9.80;99.90;;;;;;5133704;28;20046;-61
2023/04/05 10:30:08;;;;;;;2.83;1.95;;;9.90;99.90;;;;;;5133440;28;20051;-62
2023/04/05 10:32:37;;;;;;;4.43;1.92;;;9.90;99.90;;;;;;5114870;28;20043;-61
2023/04/05 10:35:16;;;;;;;5.03;1.75;;;10.00;99.90;;;;;;5133276;28;20086;-61
2023/04/05 10:37:59;;;;;;;5.95;1.65;;;9.90;99.90;;;;;;5133571;28;20084;-61
2023/04/05 10:40:29;;;;;;;2.72;1.65;;;10.00;99.90;;;;;;5133468;28;20071;-62
2023/04/05 10:42:55;;;;;;;3.58;2.00;;;10.00;99.90;;;;;;5133418;28;20043;-61
2023/04/05 10:45:22;;;;;;;3.25;1.63;;;10.40;99.90;;;;;;5133533;28;20398;-62
2023/04/05 10:47:53;;;;;;;3.38;1.90;;;10.60;99.90;;;;;;5133589;28;20479;-61
2023/04/05 10:50:22;;;;;;;4.95;2.03;;;10.60;99.90;;;;;;5133257;28;20031;-61
2023/04/05 10:52:49;;;;;;;4.60;1.90;;;10.80;99.90;;;;;;5133571;28;20402;-63
2023/04/05 10:55:15;;;;;;;3.22;2.13;;;11.90;99.90;;;;;;5133458;28;20035;-65
2023/04/05 10:57:42;;;;;;;2.92;1.77;;;11.00;99.90;;;;;;5133492;28;20047;-62
2023/04/05 11:00:10;;;;;;;4.05;2.38;;;11.00;99.90;;;;;;5133365;28;20428;-62
2023/04/05 11:02:36;;;;;;;3.20;2.17;;;10.80;99.90;;;;;;5097887;28;20096;-61
2023/04/05 11:05:05;;;;;;;2.58;1.85;;;10.60;99.90;;;;;;5133646;27;20058;-62
2023/04/05 11:07:45;;;;;;;3.58;1.80;;;10.70;99.90;;;;;;5137042;27;20043;-62
2023/04/05 11:10:18;;;;;;;3.58;1.98;;;11.00;99.90;;;;;;5137018;27;20043;-62
2023/04/05 11:12:47;;;;;;;4.60;2.08;;;11.30;99.90;;;;;;5118509;27;20077;-62
2023/04/05 11:15:27;;;;;;;3.60;2.08;;;11.40;99.90;;;;;;5118492;27;20058;-62
2023/04/05 11:18:06;;;;;;;2.67;1.80;;;11.60;99.90;;;;;;5136755;27;20039;-61
2023/04/05 11:20:46;;;;;;;2.97;1.67;;;11.30;99.90;;;;;;5118425;27;20458;-62
2023/04/05 11:23:17;;;;;;;3.10;2.00;;;11.40;99.90;;;;;;5136429;27;20035;-62
2023/04/05 11:25:50;;;;;;;5.00;1.80;;;11.60;99.90;;;;;;5136787;27;20043;-61
2023/04/05 11:28:41;;;;;;;4.60;1.80;;;11.70;99.90;;;;;;5136708;27;20105;-61
2023/04/05 11:31:16;;;;;;;4.25;2.25;;;11.90;99.90;;;;;;5132309;27;20046;-62
2023/04/05 11:33:55;;;;;;;2.63;1.80;;;12.30;99.90;;;;;;5136593;27;20043;-62
2023/04/05 11:36:37;;;;;;;3.05;2.05;;;12.00;99.90;;;;;;5136328;27;20043;-62
2023/04/05 11:39:18;;;;;;;4.03;1.77;;;11.80;99.90;;;;;;5136327;27;20039;-62
2023/04/05 11:42:00;;;;;;;3.80;2.20;;;12.20;99.90;;;;;;5118120;27;20031;-62
2023/04/05 11:44:47;;;;;;;4.65;1.70;;;12.30;99.90;;;;;;5136067;27;20042;-62
2023/04/05 11:47:15;;;;;;;2.92;1.73;;;12.50;99.90;;;;;;5135265;27;20434;-62
2023/04/05 11:49:41;;;;;;;2.33;1.70;;;12.20;99.90;;;;;;5136218;27;20043;-62
2023/04/05 11:52:18;;;;;;;3.63;1.77;;;11.90;99.90;;;;;;5136197;27;20501;-65
2023/04/05 11:54:45;;;;;;;5.63;2.13;;;12.10;99.90;;;;;;5136086;27;20046;-62
2023/04/05 11:57:28;;;;;;;3.47;1.83;;;12.10;99.90;;;;;;5136065;27;20086;-62
2023/04/05 11:59:54;;;;;;;4.60;1.75;;;11.90;99.90;;;;;;5136022;27;20088;-62
2023/04/05 12:02:20;;;;;;;2.78;1.42;;;12.30;99.90;;;;;;5136330;27;20035;-62
2023/04/05 12:04:56;;;;;;;2.83;1.70;;;12.50;99.90;;;;;;5135981;27;20077;-62
2023/04/05 12:07:25;;;;;;;2.63;1.60;;;13.00;99.90;;;;;;5135957;27;20039;-62
2023/04/05 12:10:14;;;;;;;3.45;2.10;;;13.00;1.00;;;;;;5135866;27;20405;-62
2023/04/05 12:12:41;;;;;;;3.33;1.52;;;;;;;;;;5135893;27;20039;-62
2023/04/05 12:15:09;;;;;;;2.15;1.67;;;;;;;;;;5135870;27;20401;-62
2023/04/05 12:17:43;;;;;;;2.13;1.60;;;13.20;99.90;;;;;;5134725;27;20043;-65
2023/04/05 12:20:10;;;;;;;4.15;1.90;;;13.00;99.90;;;;;;5116824;27;20047;-64
2023/04/05 12:22:37;;;;;;;4.78;2.40;;;13.00;99.90;;;;;;5116965;27;20043;-64
2023/04/05 12:25:03;;;;;;;4.07;1.83;;;12.80;99.90;;;;;;5135567;27;20082;-63
2023/04/05 12:27:29;;;;;;;3.70;2.05;;;12.40;99.90;;;;;;5135209;27;20039;-62
2023/04/05 12:30:26;;;;;;;4.18;1.90;;;12.90;99.90;;;;;;5135416;27;20035;-62
2023/04/05 12:32:56;;;;;;;4.60;1.77;;;12.90;99.90;;;;;;5119031;27;20390;-62
2023/04/05 12:35:31;;;;;;;3.35;1.60;;;13.70;99.90;;;;;;5135379;27;20436;-62
2023/04/05 12:37:58;;;;;;;2.55;1.63;;;13.30;99.90;;;;;;5134986;27;20164;-62
2023/04/05 12:40:24;;;;;;;3.13;1.73;;;13.30;99.90;;;;;;5135158;27;20328;-63
2023/04/05 12:42:50;;;;;;;4.15;1.98;;;13.60;99.90;;;;;;5134993;27;20035;-63
2023/04/05 12:45:17;;;;;;;4.25;2.25;;;13.40;99.90;;;;;;5135209;27;20043;-62
2023/04/05 12:47:57;;;;;;;3.20;2.03;;;13.70;99.90;;;;;;5135151;27;20506;-62
2023/04/05 12:50:32;;;;;;;3.63;2.20;;;13.70;99.90;;;;;;5135122;27;20043;-63
2023/04/05 12:52:59;;;;;;;2.17;1.35;;;13.70;99.90;;;;;;5134957;27;20046;-63
2023/04/05 12:55:29;;;;;;;2.65;1.80;;;14.10;80.50;;;;;;5116679;27;20043;-63
2023/04/05 12:57:58;;;;;;;3.95;2.15;;;13.80;74.40;;;;;;5116208;27;20064;-62
2023/04/05 13:00:26;;;;;;;3.05;2.00;;;13.80;61.30;;;;;;5134783;27;20039;-62
2023/04/05 13:02:53;;;;;;;2.80;1.90;;;13.50;42.70;;;;;;5134678;27;20039;-63
2023/04/05 13:05:29;;;;;;;4.50;2.15;;;13.90;40.20;;;;;;5134802;27;20031;-62
2023/04/05 13:07:55;;;;;;;4.22;2.22;;;14.00;23.80;;;;;;5134288;27;20060;-62